Vyborgskiy — UFVQ — position and weather

sailwx.info

Track history (hours):
 
Tides and Currents Weather Stations Pressure Air Temp Water Temp Dewpoint Dewpoint Depression Visibility Wind Speed Wind Dir Waves Ship Positions

Vyborgskiy

Last reported at 2018-Jun-23 12:00 UTC. Time now 2018-Jun-23 12:22 UTC.
Position N 70°02' E 031°03'.

Length 85 m; draft 3.7 m.

Type: Cargo ship. MMSI: 273252100.

Date/timePositionNaut miles runAvg speedWind from/ knotsBaromVisibWave heightAir tempDewpointWater temp
2018-Jun-23 12:00N 70°02' E 031°03'3 6.4
2018-Jun-23 11:30N 70°04' E 031°12'3 6.4
2018-Jun-23 11:00N 70°06' E 031°20'3 6.3
2018-Jun-23 10:30N 70°07' E 031°28'3 5.7
2018-Jun-23 09:59N 70°08' E 031°36'3 5.7
2018-Jun-23 09:30N 70°10' E 031°43'3 5.4
2018-Jun-23 09:00N 70°11' E 031°50'3 5.4
2018-Jun-23 08:30N 70°12' E 031°57'73 6.1
2018-Jun-22 20:33N 69°03' E 033°06'0 7.2
2018-Jun-22 20:30N 69°03' E 033°05'3 5.9
2018-Jun-22 20:00N 69°01' E 033°03'3 5.5
2018-Jun-22 19:30N 68°58' E 033°02'1 2.8
2018-Jun-22 19:00N 68°56' E 033°02'0 0.0
2018-Jun-22 18:28N 68°56' E 033°02'0 0.0
2018-Jun-22 18:00N 68°56' E 033°02'0 0.0
2018-Jun-22 17:29N 68°56' E 033°02'0 0.0
2018-Jun-22 16:56N 68°56' E 033°02'0 0.0
2018-Jun-22 16:28N 68°56' E 033°02'0 0.0
2018-Jun-22 15:57N 68°56' E 033°02'0 0.0
2018-Jun-22 15:29N 68°56' E 033°02'0 0.0
2018-Jun-22 14:59N 68°56' E 033°02'0 0.0
2018-Jun-22 14:25N 68°56' E 033°02'0 0.0
2018-Jun-22 14:00N 68°56' E 033°02'0 0.0
2018-Jun-22 13:28N 68°56' E 033°02'0 0.0
2018-Jun-22 12:58N 68°56' E 033°02'0 0.0
2018-Jun-22 12:28N 68°56' E 033°02'0 0.0
2018-Jun-22 11:53N 68°56' E 033°02'0 0.0
2018-Jun-22 11:25N 68°56' E 033°02'0 0.0
2018-Jun-22 10:59N 68°56' E 033°02'0 0.0
2018-Jun-22 10:28N 68°56' E 033°02'0 0.0
2018-Jun-22 09:59N 68°56' E 033°02'0 0.0
2018-Jun-22 09:24N 68°56' E 033°02'0 0.0
2018-Jun-22 09:00N 68°56' E 033°02'0 0.0
2018-Jun-22 08:25N 68°56' E 033°02'0 0.0
2018-Jun-22 07:58N 68°56' E 033°02'0 0.0
2018-Jun-22 07:28N 68°56' E 033°02'0 0.0
2018-Jun-22 06:58N 68°56' E 033°02'0 0.0
2018-Jun-22 06:26N 68°56' E 033°02'0 0.0
2018-Jun-22 05:59N 68°56' E 033°02'0 0.0
2018-Jun-22 05:29N 68°56' E 033°02'0 0.0
2018-Jun-22 04:59N 68°56' E 033°02'0 0.0
2018-Jun-22 04:29N 68°56' E 033°02'0 0.0
2018-Jun-22 03:56N 68°56' E 033°02'0 0.0
2018-Jun-22 03:28N 68°56' E 033°02'0 0.0
2018-Jun-22 03:00N 68°56' E 033°02'0 0.0
2018-Jun-22 02:28N 68°56' E 033°02'0 0.0
2018-Jun-22 01:57N 68°56' E 033°02'0 0.0
2018-Jun-22 01:30N 68°56' E 033°02'0 0.0
2018-Jun-22 01:00N 68°56' E 033°02'0 0.0
2018-Jun-22 00:25N 68°56' E 033°02'0 0.0
2018-Jun-21 23:58N 68°56' E 033°02'0 0.0
2018-Jun-21 23:29N 68°56' E 033°02'0 0.0
2018-Jun-21 22:59N 68°56' E 033°02'0 0.0
2018-Jun-21 22:29N 68°56' E 033°02'0 0.0
2018-Jun-21 21:54N 68°56' E 033°02'0 0.0
2018-Jun-21 21:29N 68°56' E 033°02'0 0.0
2018-Jun-21 20:59N 68°56' E 033°02'0 0.0
2018-Jun-21 20:26N 68°56' E 033°02'0 0.0
2018-Jun-21 19:59N 68°56' E 033°02'0 0.0
2018-Jun-21 19:30N 68°56' E 033°02'0 0.0
2018-Jun-21 18:58N 68°56' E 033°02'0 0.0
2018-Jun-21 18:28N 68°56' E 033°02'0 0.0
2018-Jun-21 17:58N 68°56' E 033°02'0 0.0
2018-Jun-21 17:28N 68°56' E 033°02'0 0.0
2018-Jun-21 02:57N 68°56' E 033°02'0 0.0
2018-Jun-21 02:27N 68°56' E 033°02'0 0.0
2018-Jun-21 02:00N 68°56' E 033°02'0 0.0
2018-Jun-21 01:30N 68°56' E 033°02'0 0.0
2018-Jun-21 01:00N 68°56' E 033°02'0 0.0
2018-Jun-21 00:30N 68°56' E 033°02'0 0.0
2018-Jun-20 23:59N 68°56' E 033°02'0 0.0
2018-Jun-20 23:27N 68°56' E 033°02'0 0.0
2018-Jun-20 22:59N 68°56' E 033°02'0 0.0
2018-Jun-20 22:29N 68°56' E 033°02'0 0.0
2018-Jun-20 21:59N 68°56' E 033°02'0 0.0
2018-Jun-20 21:30N 68°56' E 033°02'0 0.0
2018-Jun-20 20:59N 68°56' E 033°02'0 0.0
2018-Jun-20 20:26N 68°56' E 033°02'0 0.0
2018-Jun-20 20:00N 68°56' E 033°02'0 0.0
2018-Jun-20 19:30N 68°56' E 033°02'0 0.0
2018-Jun-20 18:58N 68°56' E 033°02'0 0.0
2018-Jun-20 18:28N 68°56' E 033°02'0 0.0
2018-Jun-20 17:58N 68°56' E 033°02'0 0.0
2018-Jun-20 17:29N 68°56' E 033°02'0 0.0
2018-Jun-20 16:58N 68°56' E 033°02'0 0.0
2018-Jun-20 16:28N 68°56' E 033°02'0 0.0
2018-Jun-20 15:59N 68°56' E 033°02'0 0.0
2018-Jun-20 15:29N 68°56' E 033°02'0 0.0
2018-Jun-20 14:59N 68°56' E 033°02'0 0.0
2018-Jun-20 14:30N 68°56' E 033°02'0 0.0
2018-Jun-20 13:57N 68°56' E 033°02'0 0.0
2018-Jun-20 13:28N 68°56' E 033°02'0 0.0
2018-Jun-20 12:59N 68°56' E 033°02'0 0.0
2018-Jun-20 12:30N 68°56' E 033°02'0 0.0
2018-Jun-20 11:58N 68°56' E 033°02'0 0.0
2018-Jun-20 11:25N 68°56' E 033°02'0 0.0
2018-Jun-20 10:58N 68°56' E 033°02'0 0.0
2018-Jun-20 10:29N 68°56' E 033°02'0 0.0
2018-Jun-20 09:54N 68°56' E 033°02'0 0.0
2018-Jun-20 09:23N 68°56' E 033°02'0 0.0
2018-Jun-20 08:58N 68°56' E 033°02'0 0.0
2018-Jun-20 08:29N 68°56' E 033°02'0 0.0
2018-Jun-20 07:56N 68°56' E 033°02'0 0.0
2018-Jun-20 07:30N 68°56' E 033°02'0 0.0
2018-Jun-20 06:58N 68°56' E 033°02'0 0.0
2018-Jun-20 06:30N 68°56' E 033°02'0 0.0
2018-Jun-20 05:59N 68°56' E 033°02'0 0.0
2018-Jun-20 05:25N 68°56' E 033°02'0 0.0
2018-Jun-20 04:59N 68°56' E 033°02'0 0.0
2018-Jun-20 04:30N 68°56' E 033°02'0 0.0
2018-Jun-20 04:00N 68°56' E 033°02'0 0.0
2018-Jun-20 03:28N 68°56' E 033°02'0 0.0
2018-Jun-20 02:57N 68°56' E 033°02'0 0.0
2018-Jun-20 02:29N 68°56' E 033°02'0 0.0
2018-Jun-20 01:59N 68°56' E 033°02'0 0.0
2018-Jun-20 01:28N 68°56' E 033°02'0 0.0
2018-Jun-20 00:55N 68°56' E 033°02'0 0.0
2018-Jun-20 00:30N 68°56' E 033°02'0 0.0
2018-Jun-19 23:53N 68°56' E 033°02'0 0.0
2018-Jun-19 23:29N 68°56' E 033°02'0 0.0
2018-Jun-19 22:57N 68°56' E 033°02'0 0.0
2018-Jun-19 22:28N 68°56' E 033°02'0 0.0
2018-Jun-19 21:59N 68°56' E 033°02'0 0.0
2018-Jun-19 21:30N 68°56' E 033°02'0 0.0
2018-Jun-19 20:59N 68°56' E 033°02'0 0.0
2018-Jun-19 20:29N 68°56' E 033°02'0 0.0
2018-Jun-19 19:59N 68°56' E 033°02'0 0.0
2018-Jun-19 19:29N 68°56' E 033°02'0 0.0
2018-Jun-19 18:59N 68°56' E 033°02'0 0.0
2018-Jun-19 18:28N 68°56' E 033°02'0 0.0
2018-Jun-19 17:59N 68°56' E 033°02'0 0.0
2018-Jun-19 17:30N 68°56' E 033°02'0 0.0
2018-Jun-19 17:00N 68°56' E 033°02'0 0.0
2018-Jun-19 16:29N 68°56' E 033°02'0 0.0
2018-Jun-19 15:59N 68°56' E 033°02'0 0.0
2018-Jun-19 15:30N 68°56' E 033°02'0 0.0
2018-Jun-19 15:00N 68°56' E 033°02'0 0.0
2018-Jun-19 14:29N 68°56' E 033°02'0 0.0
2018-Jun-19 14:00N 68°56' E 033°02'0 0.0
2018-Jun-19 13:28N 68°56' E 033°02'0 0.0
2018-Jun-19 12:58N 68°56' E 033°02'0 0.0
2018-Jun-19 12:28N 68°56' E 033°02'0 0.0
2018-Jun-19 11:57N 68°56' E 033°02'0 0.0
2018-Jun-19 11:28N 68°56' E 033°02'0 0.0
2018-Jun-19 10:55N 68°56' E 033°02'0 0.0
2018-Jun-19 10:27N 68°56' E 033°02'0 0.0
2018-Jun-19 09:59N 68°56' E 033°02'0 0.0
2018-Jun-19 09:30N 68°56' E 033°02'0 0.0
2018-Jun-19 08:59N 68°56' E 033°02'0 0.0
2018-Jun-19 08:29N 68°56' E 033°02'0 0.0
2018-Jun-19 07:59N 68°56' E 033°02'0 0.0
2018-Jun-19 07:29N 68°56' E 033°02'0 0.0
2018-Jun-19 06:55N 68°56' E 033°02'0 0.0
2018-Jun-19 06:30N 68°56' E 033°02'0 0.0
2018-Jun-19 05:57N 68°56' E 033°02'0 0.0
2018-Jun-19 05:28N 68°56' E 033°02'0 0.0
2018-Jun-19 05:00N 68°56' E 033°02'0 0.0
2018-Jun-19 04:30N 68°56' E 033°02'0 0.0
2018-Jun-19 04:00N 68°56' E 033°02'0 0.0
2018-Jun-19 03:30N 68°56' E 033°02'0 0.0
2018-Jun-19 03:00N 68°56' E 033°02'0 0.0
2018-Jun-19 02:28N 68°56' E 033°02'0 0.0
2018-Jun-19 01:59N 68°56' E 033°02'0 0.0
2018-Jun-19 01:30N 68°56' E 033°02'0 0.0
2018-Jun-19 00:58N 68°56' E 033°02'0 0.0
2018-Jun-19 00:26N 68°56' E 033°02'0 0.0
2018-Jun-18 23:59N 68°56' E 033°02'0 0.0
2018-Jun-18 23:29N 68°56' E 033°02'0 0.0
2018-Jun-18 22:58N 68°56' E 033°02'0 0.0
2018-Jun-18 22:25N 68°56' E 033°02'0 0.0
2018-Jun-18 21:58N 68°56' E 033°02'0 0.0
2018-Jun-18 21:30N 68°56' E 033°02'0 0.0
2018-Jun-18 21:00N 68°56' E 033°02'0 0.0
2018-Jun-18 20:29N 68°56' E 033°02'0 0.0
2018-Jun-18 19:59N 68°56' E 033°02'0 0.0
2018-Jun-18 19:29N 68°56' E 033°02'0 0.0
2018-Jun-18 18:59N 68°56' E 033°02'0 0.0
2018-Jun-18 18:29N 68°56' E 033°02'0 0.0
2018-Jun-18 17:58N 68°56' E 033°02'0 0.0
2018-Jun-18 17:29N 68°56' E 033°02'0 0.0
2018-Jun-18 16:58N 68°56' E 033°02'0 0.0
2018-Jun-18 16:29N 68°56' E 033°02'0 0.0
2018-Jun-18 15:57N 68°56' E 033°02'0 0.0
2018-Jun-18 15:28N 68°56' E 033°02'0 0.0
2018-Jun-18 15:00N 68°56' E 033°02'0 0.0
2018-Jun-18 14:30N 68°56' E 033°02'0 0.0
2018-Jun-18 13:58N 68°56' E 033°02'0 0.0
2018-Jun-18 13:26N 68°56' E 033°02'0 0.0
2018-Jun-18 13:00N 68°56' E 033°02'0 0.0
2018-Jun-18 12:28N 68°56' E 033°02'0 0.0
2018-Jun-18 11:58N 68°56' E 033°02'0 0.0
2018-Jun-18 11:23N 68°56' E 033°02'0 0.0
2018-Jun-18 10:58N 68°56' E 033°02'0 0.0
2018-Jun-18 10:26N 68°56' E 033°02'0 0.0
2018-Jun-18 09:58N 68°56' E 033°02'0 0.0
2018-Jun-18 09:29N 68°56' E 033°02'0 0.0
2018-Jun-18 08:58N 68°56' E 033°02'0 0.0
2018-Jun-18 08:28N 68°56' E 033°02'0 0.0
2018-Jun-18 07:55N 68°56' E 033°02'0 0.0
2018-Jun-18 07:28N 68°56' E 033°02'0 0.0
2018-Jun-18 07:00N 68°56' E 033°02'0 0.0
2018-Jun-18 06:28N 68°56' E 033°02'0 0.0
2018-Jun-18 06:00N 68°56' E 033°02'0 0.0
2018-Jun-18 05:29N 68°56' E 033°02'0 0.0
2018-Jun-18 04:53N 68°56' E 033°02'0 0.0
2018-Jun-18 04:29N 68°56' E 033°02'0 0.0
2018-Jun-18 04:00N 68°56' E 033°02'0 0.0
2018-Jun-18 03:24N 68°56' E 033°02'0 0.0
2018-Jun-18 03:00N 68°56' E 033°02'0 0.0
2018-Jun-18 02:30N 68°56' E 033°02'0 0.0
2018-Jun-18 01:53N 68°56' E 033°02'0 0.0
2018-Jun-18 01:30N 68°56' E 033°02'0 0.0
2018-Jun-18 00:57N 68°56' E 033°02'0 0.0
2018-Jun-18 00:28N 68°56' E 033°02'0 0.0
2018-Jun-17 23:53N 68°56' E 033°02'0 0.0
2018-Jun-17 23:30N 68°56' E 033°02'0 0.0
2018-Jun-17 22:59N 68°56' E 033°02'0 0.0
2018-Jun-17 22:26N 68°56' E 033°02'0 0.0
2018-Jun-17 21:55N 68°56' E 033°02'0 0.0
2018-Jun-17 21:30N 68°56' E 033°02'0 0.0
2018-Jun-17 21:00N 68°56' E 033°02'0 0.0
2018-Jun-17 20:30N 68°56' E 033°02'0 0.0
2018-Jun-17 19:57N 68°56' E 033°02'0 0.0
2018-Jun-17 19:30N 68°56' E 033°02'0 0.0
2018-Jun-17 18:59N 68°56' E 033°02'0 0.0
2018-Jun-17 18:30N 68°56' E 033°02'0 0.0
2018-Jun-17 18:00N 68°56' E 033°02'0 0.0
2018-Jun-17 17:30N 68°56' E 033°02'0 0.0
2018-Jun-17 16:59N 68°56' E 033°02'0 0.0
2018-Jun-17 16:29N 68°56' E 033°02'0 0.0
2018-Jun-17 15:58N 68°56' E 033°02'0 0.0
2018-Jun-17 15:29N 68°56' E 033°02'0 0.0
2018-Jun-17 14:59N 68°56' E 033°02'0 0.0
2018-Jun-17 14:28N 68°56' E 033°02'0 0.0
2018-Jun-17 13:58N 68°56' E 033°02'0 0.0
2018-Jun-17 13:29N 68°56' E 033°02'0 0.0
2018-Jun-17 12:58N 68°56' E 033°02'0 0.0
2018-Jun-17 12:28N 68°56' E 033°02'0 0.0
2018-Jun-17 11:53N 68°56' E 033°02'0 0.0
2018-Jun-17 11:28N 68°56' E 033°02'0 0.0
2018-Jun-17 10:58N 68°56' E 033°02'0 0.0
2018-Jun-17 10:28N 68°56' E 033°02'0 0.0
2018-Jun-17 10:00N 68°56' E 033°02'0 0.0
2018-Jun-17 09:28N 68°56' E 033°02'0 0.0
2018-Jun-17 08:58N 68°56' E 033°02'0 0.0
2018-Jun-17 08:26N 68°56' E 033°02'0 0.0
2018-Jun-17 07:58N 68°56' E 033°02'0 0.0
2018-Jun-17 07:28N 68°56' E 033°02'0 0.0
2018-Jun-17 07:00N 68°56' E 033°02'0 0.0
2018-Jun-17 06:30N 68°56' E 033°02'0 0.0
2018-Jun-17 05:58N 68°56' E 033°02'0 0.0
2018-Jun-17 05:29N 68°56' E 033°02'0 0.0
2018-Jun-17 04:58N 68°56' E 033°02'0 0.0
2018-Jun-17 04:29N 68°56' E 033°02'0 0.0
2018-Jun-17 04:00N 68°56' E 033°02'0 0.0
2018-Jun-17 03:28N 68°56' E 033°02'0 0.0
2018-Jun-17 02:58N 68°56' E 033°02'0 0.0
2018-Jun-17 02:25N 68°56' E 033°02'0 0.0
2018-Jun-17 01:59N 68°56' E 033°02'0 0.0
2018-Jun-17 01:29N 68°56' E 033°02'0 0.0
2018-Jun-17 00:53N 68°56' E 033°02'0 0.0
2018-Jun-17 00:27N 68°56' E 033°02'0 0.0
2018-Jun-16 23:58N 68°56' E 033°02'0 0.0
2018-Jun-16 23:24N 68°56' E 033°02'0 0.0
2018-Jun-16 22:57N 68°56' E 033°02'0 0.0
2018-Jun-16 22:28N 68°56' E 033°02'0 0.0
2018-Jun-16 21:58N 68°56' E 033°02'0 0.0
2018-Jun-16 21:29N 68°56' E 033°02'0 0.0
2018-Jun-16 20:59N 68°56' E 033°02'0 0.0
2018-Jun-16 20:29N 68°56' E 033°02'0 0.0
2018-Jun-16 19:59N 68°56' E 033°02'0 0.0
2018-Jun-16 19:29N 68°56' E 033°02'0 0.0
2018-Jun-16 19:00N 68°56' E 033°02'0 0.0
2018-Jun-16 18:28N 68°56' E 033°02'0 0.0
2018-Jun-16 17:58N 68°56' E 033°02'0 0.0
2018-Jun-16 17:28N 68°56' E 033°02'0 0.0
2018-Jun-16 16:59N 68°56' E 033°02'0 0.0
2018-Jun-16 16:28N 68°56' E 033°02'0 0.0
2018-Jun-16 15:53N 68°56' E 033°02'0 0.0
2018-Jun-16 15:30N 68°56' E 033°02'0 0.0
2018-Jun-16 14:58N 68°56' E 033°02'0 0.0
2018-Jun-16 14:28N 68°56' E 033°02'0 0.0
2018-Jun-16 13:58N 68°56' E 033°02'0 0.0
2018-Jun-16 13:29N 68°56' E 033°02'0 0.0
2018-Jun-16 13:00N 68°56' E 033°02'0 0.0
2018-Jun-16 12:29N 68°56' E 033°02'0 0.0
2018-Jun-16 11:59N 68°56' E 033°02'0 0.0
2018-Jun-16 11:30N 68°56' E 033°02'0 0.0
2018-Jun-16 10:58N 68°56' E 033°02'0 0.0
2018-Jun-16 10:25N 68°56' E 033°02'0 0.0
2018-Jun-16 09:53N 68°56' E 033°02'0 0.0
2018-Jun-16 09:30N 68°56' E 033°02'0 0.0
2018-Jun-16 09:00N 68°56' E 033°02'0 0.0
2018-Jun-16 08:27N 68°56' E 033°02'0 0.0
2018-Jun-16 08:00N 68°56' E 033°02'0 0.0
2018-Jun-16 07:29N 68°56' E 033°02'0 0.0
2018-Jun-16 06:58N 68°56' E 033°02'0 0.0
2018-Jun-16 06:25N 68°56' E 033°02'0 0.0
2018-Jun-16 05:59N 68°56' E 033°02'0 0.0
2018-Jun-16 05:28N 68°56' E 033°02'0 0.0
2018-Jun-16 04:59N 68°56' E 033°02'0 0.0
2018-Jun-16 04:28N 68°56' E 033°02'0 0.0
2018-Jun-16 03:59N 68°56' E 033°02'0 0.0
2018-Jun-16 03:27N 68°56' E 033°02'0 0.0
2018-Jun-16 03:00N 68°56' E 033°02'0 0.0
2018-Jun-16 02:29N 68°56' E 033°02'0 0.0
2018-Jun-16 01:58N 68°56' E 033°02'0 0.0
2018-Jun-16 01:30N 68°56' E 033°02'0 0.0
2018-Jun-16 01:00N 68°56' E 033°02'0 0.0
2018-Jun-16 00:25N 68°56' E 033°02'0 0.0
2018-Jun-15 23:58N 68°56' E 033°02'0 0.0
2018-Jun-15 23:29N 68°56' E 033°02'0 0.0
2018-Jun-15 23:00N 68°56' E 033°02'0 0.0
2018-Jun-15 22:27N 68°56' E 033°02'0 0.0
2018-Jun-15 22:00N 68°56' E 033°02'0 0.0
2018-Jun-15 21:27N 68°56' E 033°02'0 0.0
2018-Jun-15 21:00N 68°56' E 033°02'0 0.0
2018-Jun-15 20:26N 68°56' E 033°02'0 0.0
2018-Jun-15 19:49N 68°56' E 033°02'0 0.0
2018-Jun-15 19:30N 68°56' E 033°02'0 0.0
2018-Jun-15 19:00N 68°56' E 033°02'0 0.0
2018-Jun-15 18:28N 68°56' E 033°02'0 0.0
2018-Jun-15 18:00N 68°56' E 033°02'0 0.0
2018-Jun-15 17:30N 68°56' E 033°02'0 0.0
2018-Jun-15 16:58N 68°56' E 033°02'0 0.0
2018-Jun-15 16:28N 68°56' E 033°02'0 0.0
2018-Jun-15 15:58N 68°56' E 033°02'0 0.0
2018-Jun-15 15:28N 68°56' E 033°02'0 0.0
2018-Jun-15 14:58N 68°56' E 033°02'0 0.0
2018-Jun-15 14:30N 68°56' E 033°02'0 0.0
2018-Jun-15 13:59N 68°56' E 033°02'0 0.0
2018-Jun-15 13:29N 68°56' E 033°02'0 0.9
2018-Jun-15 13:00N 68°57' E 033°01'2 4.8
2018-Jun-15 12:30N 68°59' E 033°02'3 6.5
2018-Jun-15 12:00N 69°02' E 033°03'  
Track history (hours):
 
Tides and Currents Weather Stations Pressure Air Temp Water Temp Dewpoint Dewpoint Depression Visibility Wind Speed Wind Dir Waves Ship Positions

Vyborgskiy

Last reported at 2018-Jun-23 12:00 UTC. Time now 2018-Jun-23 12:22 UTC.
Position N 70°02' E 031°03'.

Length 85 m; draft 3.7 m.

Type: Cargo ship. MMSI: 273252100.

Date/timePositionNaut miles runAvg speedWind from/ knotsBaromVisibWave heightAir tempDewpointWater temp
2018-Jun-23 12:00N 70°02' E 031°03'3 6.4
2018-Jun-23 11:30N 70°04' E 031°12'3 6.4
2018-Jun-23 11:00N 70°06' E 031°20'3 6.3
2018-Jun-23 10:30N 70°07' E 031°28'3 5.7
2018-Jun-23 09:59N 70°08' E 031°36'3 5.7
2018-Jun-23 09:30N 70°10' E 031°43'3 5.4
2018-Jun-23 09:00N 70°11' E 031°50'3 5.4
2018-Jun-23 08:30N 70°12' E 031°57'73 6.1
2018-Jun-22 20:33N 69°03' E 033°06'0 7.2
2018-Jun-22 20:30N 69°03' E 033°05'3 5.9
2018-Jun-22 20:00N 69°01' E 033°03'3 5.5
2018-Jun-22 19:30N 68°58' E 033°02'1 2.8
2018-Jun-22 19:00N 68°56' E 033°02'0 0.0
2018-Jun-22 18:28N 68°56' E 033°02'0 0.0
2018-Jun-22 18:00N 68°56' E 033°02'0 0.0
2018-Jun-22 17:29N 68°56' E 033°02'0 0.0
2018-Jun-22 16:56N 68°56' E 033°02'0 0.0
2018-Jun-22 16:28N 68°56' E 033°02'0 0.0
2018-Jun-22 15:57N 68°56' E 033°02'0 0.0
2018-Jun-22 15:29N 68°56' E 033°02'0 0.0
2018-Jun-22 14:59N 68°56' E 033°02'0 0.0
2018-Jun-22 14:25N 68°56' E 033°02'0 0.0
2018-Jun-22 14:00N 68°56' E 033°02'0 0.0
2018-Jun-22 13:28N 68°56' E 033°02'0 0.0
2018-Jun-22 12:58N 68°56' E 033°02'0 0.0
2018-Jun-22 12:28N 68°56' E 033°02'0 0.0
2018-Jun-22 11:53N 68°56' E 033°02'0 0.0
2018-Jun-22 11:25N 68°56' E 033°02'0 0.0
2018-Jun-22 10:59N 68°56' E 033°02'0 0.0
2018-Jun-22 10:28N 68°56' E 033°02'0 0.0
2018-Jun-22 09:59N 68°56' E 033°02'0 0.0
2018-Jun-22 09:24N 68°56' E 033°02'0 0.0
2018-Jun-22 09:00N 68°56' E 033°02'0 0.0
2018-Jun-22 08:25N 68°56' E 033°02'0 0.0
2018-Jun-22 07:58N 68°56' E 033°02'0 0.0
2018-Jun-22 07:28N 68°56' E 033°02'0 0.0
2018-Jun-22 06:58N 68°56' E 033°02'0 0.0
2018-Jun-22 06:26N 68°56' E 033°02'0 0.0
2018-Jun-22 05:59N 68°56' E 033°02'0 0.0
2018-Jun-22 05:29N 68°56' E 033°02'0 0.0
2018-Jun-22 04:59N 68°56' E 033°02'0 0.0
2018-Jun-22 04:29N 68°56' E 033°02'0 0.0
2018-Jun-22 03:56N 68°56' E 033°02'0 0.0
2018-Jun-22 03:28N 68°56' E 033°02'0 0.0
2018-Jun-22 03:00N 68°56' E 033°02'0 0.0
2018-Jun-22 02:28N 68°56' E 033°02'0 0.0
2018-Jun-22 01:57N 68°56' E 033°02'0 0.0
2018-Jun-22 01:30N 68°56' E 033°02'0 0.0
2018-Jun-22 01:00N 68°56' E 033°02'0 0.0
2018-Jun-22 00:25N 68°56' E 033°02'0 0.0
2018-Jun-21 23:58N 68°56' E 033°02'0 0.0
2018-Jun-21 23:29N 68°56' E 033°02'0 0.0
2018-Jun-21 22:59N 68°56' E 033°02'0 0.0
2018-Jun-21 22:29N 68°56' E 033°02'0 0.0
2018-Jun-21 21:54N 68°56' E 033°02'0 0.0
2018-Jun-21 21:29N 68°56' E 033°02'0 0.0
2018-Jun-21 20:59N 68°56' E 033°02'0 0.0
2018-Jun-21 20:26N 68°56' E 033°02'0 0.0
2018-Jun-21 19:59N 68°56' E 033°02'0 0.0
2018-Jun-21 19:30N 68°56' E 033°02'0 0.0
2018-Jun-21 18:58N 68°56' E 033°02'0 0.0
2018-Jun-21 18:28N 68°56' E 033°02'0 0.0
2018-Jun-21 17:58N 68°56' E 033°02'0 0.0
2018-Jun-21 17:28N 68°56' E 033°02'0 0.0
2018-Jun-21 02:57N 68°56' E 033°02'0 0.0
2018-Jun-21 02:27N 68°56' E 033°02'0 0.0
2018-Jun-21 02:00N 68°56' E 033°02'0 0.0
2018-Jun-21 01:30N 68°56' E 033°02'0 0.0
2018-Jun-21 01:00N 68°56' E 033°02'0 0.0
2018-Jun-21 00:30N 68°56' E 033°02'0 0.0
2018-Jun-20 23:59N 68°56' E 033°02'0 0.0
2018-Jun-20 23:27N 68°56' E 033°02'0 0.0
2018-Jun-20 22:59N 68°56' E 033°02'0 0.0
2018-Jun-20 22:29N 68°56' E 033°02'0 0.0
2018-Jun-20 21:59N 68°56' E 033°02'0 0.0
2018-Jun-20 21:30N 68°56' E 033°02'0 0.0
2018-Jun-20 20:59N 68°56' E 033°02'0 0.0
2018-Jun-20 20:26N 68°56' E 033°02'0 0.0
2018-Jun-20 20:00N 68°56' E 033°02'0 0.0
2018-Jun-20 19:30N 68°56' E 033°02'0 0.0
2018-Jun-20 18:58N 68°56' E 033°02'0 0.0
2018-Jun-20 18:28N 68°56' E 033°02'0 0.0
2018-Jun-20 17:58N 68°56' E 033°02'0 0.0
2018-Jun-20 17:29N 68°56' E 033°02'0 0.0
2018-Jun-20 16:58N 68°56' E 033°02'0 0.0
2018-Jun-20 16:28N 68°56' E 033°02'0 0.0
2018-Jun-20 15:59N 68°56' E 033°02'0 0.0
2018-Jun-20 15:29N 68°56' E 033°02'0 0.0
2018-Jun-20 14:59N 68°56' E 033°02'0 0.0
2018-Jun-20 14:30N 68°56' E 033°02'0 0.0
2018-Jun-20 13:57N 68°56' E 033°02'0 0.0
2018-Jun-20 13:28N 68°56' E 033°02'0 0.0
2018-Jun-20 12:59N 68°56' E 033°02'0 0.0
2018-Jun-20 12:30N 68°56' E 033°02'0 0.0
2018-Jun-20 11:58N 68°56' E 033°02'0 0.0
2018-Jun-20 11:25N 68°56' E 033°02'0 0.0
2018-Jun-20 10:58N 68°56' E 033°02'0 0.0
2018-Jun-20 10:29N 68°56' E 033°02'0 0.0
2018-Jun-20 09:54N 68°56' E 033°02'0 0.0
2018-Jun-20 09:23N 68°56' E 033°02'0 0.0
2018-Jun-20 08:58N 68°56' E 033°02'0 0.0
2018-Jun-20 08:29N 68°56' E 033°02'0 0.0
2018-Jun-20 07:56N 68°56' E 033°02'0 0.0
2018-Jun-20 07:30N 68°56' E 033°02'0 0.0
2018-Jun-20 06:58N 68°56' E 033°02'0 0.0
2018-Jun-20 06:30N 68°56' E 033°02'0 0.0
2018-Jun-20 05:59N 68°56' E 033°02'0 0.0
2018-Jun-20 05:25N 68°56' E 033°02'0 0.0
2018-Jun-20 04:59N 68°56' E 033°02'0 0.0
2018-Jun-20 04:30N 68°56' E 033°02'0 0.0
2018-Jun-20 04:00N 68°56' E 033°02'0 0.0
2018-Jun-20 03:28N 68°56' E 033°02'0 0.0
2018-Jun-20 02:57N 68°56' E 033°02'0 0.0
2018-Jun-20 02:29N 68°56' E 033°02'0 0.0
2018-Jun-20 01:59N 68°56' E 033°02'0 0.0
2018-Jun-20 01:28N 68°56' E 033°02'0 0.0
2018-Jun-20 00:55N 68°56' E 033°02'0 0.0
2018-Jun-20 00:30N 68°56' E 033°02'0 0.0
2018-Jun-19 23:53N 68°56' E 033°02'0 0.0
2018-Jun-19 23:29N 68°56' E 033°02'0 0.0
2018-Jun-19 22:57N 68°56' E 033°02'0 0.0
2018-Jun-19 22:28N 68°56' E 033°02'0 0.0
2018-Jun-19 21:59N 68°56' E 033°02'0 0.0
2018-Jun-19 21:30N 68°56' E 033°02'0 0.0
2018-Jun-19 20:59N 68°56' E 033°02'0 0.0
2018-Jun-19 20:29N 68°56' E 033°02'0 0.0
2018-Jun-19 19:59N 68°56' E 033°02'0 0.0
2018-Jun-19 19:29N 68°56' E 033°02'0 0.0
2018-Jun-19 18:59N 68°56' E 033°02'0 0.0
2018-Jun-19 18:28N 68°56' E 033°02'0 0.0
2018-Jun-19 17:59N 68°56' E 033°02'0 0.0
2018-Jun-19 17:30N 68°56' E 033°02'0 0.0
2018-Jun-19 17:00N 68°56' E 033°02'0 0.0
2018-Jun-19 16:29N 68°56' E 033°02'0 0.0
2018-Jun-19 15:59N 68°56' E 033°02'0 0.0
2018-Jun-19 15:30N 68°56' E 033°02'0 0.0
2018-Jun-19 15:00N 68°56' E 033°02'0 0.0
2018-Jun-19 14:29N 68°56' E 033°02'0 0.0
2018-Jun-19 14:00N 68°56' E 033°02'0 0.0
2018-Jun-19 13:28N 68°56' E 033°02'0 0.0
2018-Jun-19 12:58N 68°56' E 033°02'0 0.0
2018-Jun-19 12:28N 68°56' E 033°02'0 0.0
2018-Jun-19 11:57N 68°56' E 033°02'0 0.0
2018-Jun-19 11:28N 68°56' E 033°02'0 0.0
2018-Jun-19 10:55N 68°56' E 033°02'0 0.0
2018-Jun-19 10:27N 68°56' E 033°02'0 0.0
2018-Jun-19 09:59N 68°56' E 033°02'0 0.0
2018-Jun-19 09:30N 68°56' E 033°02'0 0.0
2018-Jun-19 08:59N 68°56' E 033°02'0 0.0
2018-Jun-19 08:29N 68°56' E 033°02'0 0.0
2018-Jun-19 07:59N 68°56' E 033°02'0 0.0
2018-Jun-19 07:29N 68°56' E 033°02'0 0.0
2018-Jun-19 06:55N 68°56' E 033°02'0 0.0
2018-Jun-19 06:30N 68°56' E 033°02'0 0.0
2018-Jun-19 05:57N 68°56' E 033°02'0 0.0
2018-Jun-19 05:28N 68°56' E 033°02'0 0.0
2018-Jun-19 05:00N 68°56' E 033°02'0 0.0
2018-Jun-19 04:30N 68°56' E 033°02'0 0.0
2018-Jun-19 04:00N 68°56' E 033°02'0 0.0
2018-Jun-19 03:30N 68°56' E 033°02'0 0.0
2018-Jun-19 03:00N 68°56' E 033°02'0 0.0
2018-Jun-19 02:28N 68°56' E 033°02'0 0.0
2018-Jun-19 01:59N 68°56' E 033°02'0 0.0
2018-Jun-19 01:30N 68°56' E 033°02'0 0.0
2018-Jun-19 00:58N 68°56' E 033°02'0 0.0
2018-Jun-19 00:26N 68°56' E 033°02'0 0.0
2018-Jun-18 23:59N 68°56' E 033°02'0 0.0
2018-Jun-18 23:29N 68°56' E 033°02'0 0.0
2018-Jun-18 22:58N 68°56' E 033°02'0 0.0
2018-Jun-18 22:25N 68°56' E 033°02'0 0.0
2018-Jun-18 21:58N 68°56' E 033°02'0 0.0
2018-Jun-18 21:30N 68°56' E 033°02'0 0.0
2018-Jun-18 21:00N 68°56' E 033°02'0 0.0
2018-Jun-18 20:29N 68°56' E 033°02'0 0.0
2018-Jun-18 19:59N 68°56' E 033°02'0 0.0
2018-Jun-18 19:29N 68°56' E 033°02'0 0.0
2018-Jun-18 18:59N 68°56' E 033°02'0 0.0
2018-Jun-18 18:29N 68°56' E 033°02'0 0.0
2018-Jun-18 17:58N 68°56' E 033°02'0 0.0
2018-Jun-18 17:29N 68°56' E 033°02'0 0.0
2018-Jun-18 16:58N 68°56' E 033°02'0 0.0
2018-Jun-18 16:29N 68°56' E 033°02'0 0.0
2018-Jun-18 15:57N 68°56' E 033°02'0 0.0
2018-Jun-18 15:28N 68°56' E 033°02'0 0.0
2018-Jun-18 15:00N 68°56' E 033°02'0 0.0
2018-Jun-18 14:30N 68°56' E 033°02'0 0.0
2018-Jun-18 13:58N 68°56' E 033°02'0 0.0
2018-Jun-18 13:26N 68°56' E 033°02'0 0.0
2018-Jun-18 13:00N 68°56' E 033°02'0 0.0
2018-Jun-18 12:28N 68°56' E 033°02'0 0.0
2018-Jun-18 11:58N 68°56' E 033°02'0 0.0
2018-Jun-18 11:23N 68°56' E 033°02'0 0.0
2018-Jun-18 10:58N 68°56' E 033°02'0 0.0
2018-Jun-18 10:26N 68°56' E 033°02'0 0.0
2018-Jun-18 09:58N 68°56' E 033°02'0 0.0
2018-Jun-18 09:29N 68°56' E 033°02'0 0.0
2018-Jun-18 08:58N 68°56' E 033°02'0 0.0
2018-Jun-18 08:28N 68°56' E 033°02'0 0.0
2018-Jun-18 07:55N 68°56' E 033°02'0 0.0
2018-Jun-18 07:28N 68°56' E 033°02'0 0.0
2018-Jun-18 07:00N 68°56' E 033°02'0 0.0
2018-Jun-18 06:28N 68°56' E 033°02'0 0.0
2018-Jun-18 06:00N 68°56' E 033°02'0 0.0
2018-Jun-18 05:29N 68°56' E 033°02'0 0.0
2018-Jun-18 04:53N 68°56' E 033°02'0 0.0
2018-Jun-18 04:29N 68°56' E 033°02'0 0.0
2018-Jun-18 04:00N 68°56' E 033°02'0 0.0
2018-Jun-18 03:24N 68°56' E 033°02'0 0.0
2018-Jun-18 03:00N 68°56' E 033°02'0 0.0
2018-Jun-18 02:30N 68°56' E 033°02'0 0.0
2018-Jun-18 01:53N 68°56' E 033°02'0 0.0
2018-Jun-18 01:30N 68°56' E 033°02'0 0.0
2018-Jun-18 00:57N 68°56' E 033°02'0 0.0
2018-Jun-18 00:28N 68°56' E 033°02'0 0.0
2018-Jun-17 23:53N 68°56' E 033°02'0 0.0
2018-Jun-17 23:30N 68°56' E 033°02'0 0.0
2018-Jun-17 22:59N 68°56' E 033°02'0 0.0
2018-Jun-17 22:26N 68°56' E 033°02'0 0.0
2018-Jun-17 21:55N 68°56' E 033°02'0 0.0
2018-Jun-17 21:30N 68°56' E 033°02'0 0.0
2018-Jun-17 21:00N 68°56' E 033°02'0 0.0
2018-Jun-17 20:30N 68°56' E 033°02'0 0.0
2018-Jun-17 19:57N 68°56' E 033°02'0 0.0
2018-Jun-17 19:30N 68°56' E 033°02'0 0.0
2018-Jun-17 18:59N 68°56' E 033°02'0 0.0
2018-Jun-17 18:30N 68°56' E 033°02'0 0.0
2018-Jun-17 18:00N 68°56' E 033°02'0 0.0
2018-Jun-17 17:30N 68°56' E 033°02'0 0.0
2018-Jun-17 16:59N 68°56' E 033°02'0 0.0
2018-Jun-17 16:29N 68°56' E 033°02'0 0.0
2018-Jun-17 15:58N 68°56' E 033°02'0 0.0
2018-Jun-17 15:29N 68°56' E 033°02'0 0.0
2018-Jun-17 14:59N 68°56' E 033°02'0 0.0
2018-Jun-17 14:28N 68°56' E 033°02'0 0.0
2018-Jun-17 13:58N 68°56' E 033°02'0 0.0
2018-Jun-17 13:29N 68°56' E 033°02'0 0.0
2018-Jun-17 12:58N 68°56' E 033°02'0 0.0
2018-Jun-17 12:28N 68°56' E 033°02'0 0.0
2018-Jun-17 11:53N 68°56' E 033°02'0 0.0
2018-Jun-17 11:28N 68°56' E 033°02'0 0.0
2018-Jun-17 10:58N 68°56' E 033°02'0 0.0
2018-Jun-17 10:28N 68°56' E 033°02'0 0.0
2018-Jun-17 10:00N 68°56' E 033°02'0 0.0
2018-Jun-17 09:28N 68°56' E 033°02'0 0.0
2018-Jun-17 08:58N 68°56' E 033°02'0 0.0
2018-Jun-17 08:26N 68°56' E 033°02'0 0.0
2018-Jun-17 07:58N 68°56' E 033°02'0 0.0
2018-Jun-17 07:28N 68°56' E 033°02'0 0.0
2018-Jun-17 07:00N 68°56' E 033°02'0 0.0
2018-Jun-17 06:30N 68°56' E 033°02'0 0.0
2018-Jun-17 05:58N 68°56' E 033°02'0 0.0
2018-Jun-17 05:29N 68°56' E 033°02'0 0.0
2018-Jun-17 04:58N 68°56' E 033°02'0 0.0
2018-Jun-17 04:29N 68°56' E 033°02'0 0.0
2018-Jun-17 04:00N 68°56' E 033°02'0 0.0
2018-Jun-17 03:28N 68°56' E 033°02'0 0.0
2018-Jun-17 02:58N 68°56' E 033°02'0 0.0
2018-Jun-17 02:25N 68°56' E 033°02'0 0.0
2018-Jun-17 01:59N 68°56' E 033°02'0 0.0
2018-Jun-17 01:29N 68°56' E 033°02'0 0.0
2018-Jun-17 00:53N 68°56' E 033°02'0 0.0
2018-Jun-17 00:27N 68°56' E 033°02'0 0.0
2018-Jun-16 23:58N 68°56' E 033°02'0 0.0
2018-Jun-16 23:24N 68°56' E 033°02'0 0.0
2018-Jun-16 22:57N 68°56' E 033°02'0 0.0
2018-Jun-16 22:28N 68°56' E 033°02'0 0.0
2018-Jun-16 21:58N 68°56' E 033°02'0 0.0
2018-Jun-16 21:29N 68°56' E 033°02'0 0.0
2018-Jun-16 20:59N 68°56' E 033°02'0 0.0
2018-Jun-16 20:29N 68°56' E 033°02'0 0.0
2018-Jun-16 19:59N 68°56' E 033°02'0 0.0
2018-Jun-16 19:29N 68°56' E 033°02'0 0.0
2018-Jun-16 19:00N 68°56' E 033°02'0 0.0
2018-Jun-16 18:28N 68°56' E 033°02'0 0.0
2018-Jun-16 17:58N 68°56' E 033°02'0 0.0
2018-Jun-16 17:28N 68°56' E 033°02'0 0.0
2018-Jun-16 16:59N 68°56' E 033°02'0 0.0
2018-Jun-16 16:28N 68°56' E 033°02'0 0.0
2018-Jun-16 15:53N 68°56' E 033°02'0 0.0
2018-Jun-16 15:30N 68°56' E 033°02'0 0.0
2018-Jun-16 14:58N 68°56' E 033°02'0 0.0
2018-Jun-16 14:28N 68°56' E 033°02'0 0.0
2018-Jun-16 13:58N 68°56' E 033°02'0 0.0
2018-Jun-16 13:29N 68°56' E 033°02'0 0.0
2018-Jun-16 13:00N 68°56' E 033°02'0 0.0
2018-Jun-16 12:29N 68°56' E 033°02'0 0.0
2018-Jun-16 11:59N 68°56' E 033°02'0 0.0
2018-Jun-16 11:30N 68°56' E 033°02'0 0.0
2018-Jun-16 10:58N 68°56' E 033°02'0 0.0
2018-Jun-16 10:25N 68°56' E 033°02'0 0.0
2018-Jun-16 09:53N 68°56' E 033°02'0 0.0
2018-Jun-16 09:30N 68°56' E 033°02'0 0.0
2018-Jun-16 09:00N 68°56' E 033°02'0 0.0
2018-Jun-16 08:27N 68°56' E 033°02'0 0.0
2018-Jun-16 08:00N 68°56' E 033°02'0 0.0
2018-Jun-16 07:29N 68°56' E 033°02'0 0.0
2018-Jun-16 06:58N 68°56' E 033°02'0 0.0
2018-Jun-16 06:25N 68°56' E 033°02'0 0.0
2018-Jun-16 05:59N 68°56' E 033°02'0 0.0
2018-Jun-16 05:28N 68°56' E 033°02'0 0.0
2018-Jun-16 04:59N 68°56' E 033°02'0 0.0
2018-Jun-16 04:28N 68°56' E 033°02'0 0.0
2018-Jun-16 03:59N 68°56' E 033°02'0 0.0
2018-Jun-16 03:27N 68°56' E 033°02'0 0.0
2018-Jun-16 03:00N 68°56' E 033°02'0 0.0
2018-Jun-16 02:29N 68°56' E 033°02'0 0.0
2018-Jun-16 01:58N 68°56' E 033°02'0 0.0
2018-Jun-16 01:30N 68°56' E 033°02'0 0.0
2018-Jun-16 01:00N 68°56' E 033°02'0 0.0
2018-Jun-16 00:25N 68°56' E 033°02'0 0.0
2018-Jun-15 23:58N 68°56' E 033°02'0 0.0
2018-Jun-15 23:29N 68°56' E 033°02'0 0.0
2018-Jun-15 23:00N 68°56' E 033°02'0 0.0
2018-Jun-15 22:27N 68°56' E 033°02'0 0.0
2018-Jun-15 22:00N 68°56' E 033°02'0 0.0
2018-Jun-15 21:27N 68°56' E 033°02'0 0.0
2018-Jun-15 21:00N 68°56' E 033°02'0 0.0
2018-Jun-15 20:26N 68°56' E 033°02'0 0.0
2018-Jun-15 19:49N 68°56' E 033°02'0 0.0
2018-Jun-15 19:30N 68°56' E 033°02'0 0.0
2018-Jun-15 19:00N 68°56' E 033°02'0 0.0
2018-Jun-15 18:28N 68°56' E 033°02'0 0.0
2018-Jun-15 18:00N 68°56' E 033°02'0 0.0
2018-Jun-15 17:30N 68°56' E 033°02'0 0.0
2018-Jun-15 16:58N 68°56' E 033°02'0 0.0
2018-Jun-15 16:28N 68°56' E 033°02'0 0.0
2018-Jun-15 15:58N 68°56' E 033°02'0 0.0
2018-Jun-15 15:28N 68°56' E 033°02'0 0.0
2018-Jun-15 14:58N 68°56' E 033°02'0 0.0
2018-Jun-15 14:30N 68°56' E 033°02'0 0.0
2018-Jun-15 13:59N 68°56' E 033°02'0 0.0
2018-Jun-15 13:29N 68°56' E 033°02'0 0.9
2018-Jun-15 13:00N 68°57' E 033°01'2 4.8
2018-Jun-15 12:30N 68°59' E 033°02'3 6.5
2018-Jun-15 12:00N 69°02' E 033°03'  

Dump ship's entire track history